createdAt,value
2017-08-08T00:02:20.054Z,58.00
2017-08-08T00:04:48.311Z,58.30
2017-08-08T00:07:15.817Z,58.20
2017-08-08T00:09:43.385Z,58.30
2017-08-08T00:12:11.986Z,58.20
2017-08-08T00:14:39.479Z,58.10
2017-08-08T00:17:06.986Z,58.20
2017-08-08T00:19:34.511Z,58.10
2017-08-08T00:22:02.018Z,58.50
2017-08-08T00:24:29.515Z,58.50
2017-08-08T00:26:57.032Z,58.40
2017-08-08T00:29:24.542Z,58.40
2017-08-08T00:31:52.051Z,58.40
2017-08-08T00:34:19.581Z,58.50
2017-08-08T00:36:47.087Z,58.70
2017-08-08T00:39:14.603Z,58.70
2017-08-08T00:41:42.124Z,58.70
2017-08-08T00:44:09.840Z,59.00
2017-08-08T00:46:37.374Z,59.10
2017-08-08T00:49:05.687Z,59.40
2017-08-08T00:51:33.201Z,59.30
2017-08-08T00:54:00.713Z,59.50
2017-08-08T00:56:28.225Z,59.50
2017-08-08T00:58:56.520Z,59.70
2017-08-08T01:01:24.046Z,60.40
2017-08-08T01:03:51.589Z,59.70
2017-08-08T01:06:19.096Z,60.00
2017-08-08T01:08:47.361Z,60.40
2017-08-08T01:11:14.860Z,60.40
2017-08-08T01:13:42.383Z,60.20
2017-08-08T01:16:10.808Z,60.60
2017-08-08T01:18:38.343Z,60.80
2017-08-08T01:21:05.857Z,61.00
2017-08-08T01:23:33.419Z,61.20
2017-08-08T01:26:00.912Z,64.80
2017-08-08T01:28:28.410Z,61.10
2017-08-08T01:30:55.919Z,61.20
2017-08-08T01:33:24.576Z,60.80
2017-08-08T01:35:52.088Z,61.50
2017-08-08T01:38:19.568Z,61.60
2017-08-08T01:40:47.059Z,61.60
2017-08-08T01:43:14.575Z,61.80
2017-08-08T01:45:42.117Z,61.80
2017-08-08T01:48:09.605Z,61.70
2017-08-08T01:50:37.158Z,62.00
2017-08-08T01:53:04.679Z,62.10
2017-08-08T01:55:32.194Z,62.20
2017-08-08T01:57:59.695Z,62.10
2017-08-08T02:00:27.202Z,62.10
2017-08-08T02:02:54.714Z,62.00
2017-08-08T02:05:23.032Z,62.30
2017-08-08T02:07:50.603Z,62.20
2017-08-08T02:10:18.125Z,62.20
2017-08-08T02:12:45.629Z,62.20
2017-08-08T02:15:13.118Z,62.20
2017-08-08T02:17:40.618Z,62.00
2017-08-08T02:20:08.159Z,62.10
2017-08-08T02:22:35.688Z,62.00
2017-08-08T02:25:03.166Z,62.10
2017-08-08T02:27:30.668Z,62.20
2017-08-08T02:29:58.164Z,62.30
2017-08-08T02:32:25.682Z,62.50
2017-08-08T02:34:53.174Z,62.60
2017-08-08T02:37:20.693Z,62.60
2017-08-08T02:39:48.251Z,62.80
2017-08-08T02:42:15.763Z,62.70
2017-08-08T02:44:43.268Z,62.90
2017-08-08T02:47:10.774Z,63.00
2017-08-08T02:49:38.281Z,63.40
2017-08-08T02:52:05.767Z,63.80
2017-08-08T02:54:33.269Z,63.90
2017-08-08T02:57:00.779Z,64.10
2017-08-08T02:59:28.284Z,64.10
2017-08-08T03:01:56.575Z,65.40
2017-08-08T03:04:24.840Z,64.90
2017-08-08T03:06:53.131Z,64.90
2017-08-08T03:09:21.417Z,65.10
2017-08-08T03:11:48.939Z,65.00
2017-08-08T03:14:16.429Z,65.00
2017-08-08T03:16:43.933Z,65.10
2017-08-08T03:19:11.460Z,65.40
2017-08-08T03:21:38.974Z,65.40
2017-08-08T03:24:06.502Z,65.70
2017-08-08T03:26:34.022Z,66.70
2017-08-08T03:29:02.276Z,66.10
2017-08-08T03:31:30.576Z,66.30
2017-08-08T03:33:58.061Z,66.30
2017-08-08T03:36:25.567Z,66.50
2017-08-08T03:38:53.078Z,66.50
2017-08-08T03:41:20.599Z,66.60
2017-08-08T03:43:48.878Z,66.60
2017-08-08T03:46:17.135Z,67.00
2017-08-08T03:48:44.754Z,66.90
2017-08-08T03:51:12.269Z,67.30
2017-08-08T03:53:39.765Z,67.20
2017-08-08T03:56:07.277Z,67.40
2017-08-08T03:58:34.808Z,67.40
2017-08-08T04:01:02.310Z,67.50
2017-08-08T04:03:30.588Z,67.40
2017-08-08T04:05:58.859Z,67.60
2017-08-08T04:08:27.208Z,67.70
2017-08-08T04:10:54.692Z,67.70
2017-08-08T04:13:22.186Z,67.70
2017-08-08T04:15:49.693Z,67.60
2017-08-08T04:18:17.186Z,67.50
2017-08-08T04:20:45.475Z,67.60
2017-08-08T04:23:12.964Z,67.60
2017-08-08T04:25:40.580Z,67.70
2017-08-08T04:28:08.851Z,67.60
2017-08-08T04:30:37.147Z,68.60
2017-08-08T04:33:04.631Z,67.70
2017-08-08T04:35:32.161Z,67.80
2017-08-08T04:37:59.644Z,67.50
2017-08-08T04:40:27.178Z,67.30
2017-08-08T04:42:55.469Z,67.60
2017-08-08T04:45:22.978Z,67.50
2017-08-08T04:47:50.469Z,67.70
2017-08-08T04:50:17.998Z,68.10
2017-08-08T04:52:45.494Z,68.10
2017-08-08T04:55:13.005Z,68.00
2017-08-08T04:57:40.517Z,68.10
2017-08-08T05:00:08.015Z,68.00
2017-08-08T05:02:35.511Z,67.90
2017-08-08T05:05:03.807Z,67.90
2017-08-08T05:07:32.084Z,67.90
2017-08-08T05:09:59.611Z,67.70
2017-08-08T05:12:27.117Z,67.60
2017-08-08T05:14:54.593Z,67.60
2017-08-08T05:17:22.109Z,67.40
2017-08-08T05:19:50.404Z,67.20
2017-08-08T05:22:17.896Z,67.20
2017-08-08T05:24:45.402Z,66.90
2017-08-08T05:27:12.898Z,67.20
2017-08-08T05:29:40.389Z,67.50
2017-08-08T05:32:07.875Z,67.50
2017-08-08T05:34:36.171Z,68.00
2017-08-08T05:37:04.037Z,68.00
2017-08-08T05:39:31.534Z,67.70
2017-08-08T05:41:59.046Z,67.90
2017-08-08T05:44:26.556Z,67.60
2017-08-08T05:46:54.069Z,68.00
2017-08-08T05:49:22.368Z,67.80
2017-08-08T05:51:49.955Z,67.80
2017-08-08T05:54:17.482Z,67.80
2017-08-08T05:56:44.977Z,67.50
2017-08-08T05:59:12.518Z,66.80
2017-08-08T06:01:40.037Z,66.50
2017-08-08T06:04:08.293Z,65.20
2017-08-08T06:06:36.607Z,64.60
2017-08-08T06:09:04.117Z,64.60
2017-08-08T06:11:31.614Z,63.60
2017-08-08T06:13:59.125Z,62.30
2017-08-08T06:16:26.684Z,62.20
2017-08-08T06:18:54.177Z,60.90
2017-08-08T06:21:21.695Z,60.10
2017-08-08T06:23:49.187Z,59.80
2017-08-08T06:26:16.700Z,59.50
2017-08-08T06:28:44.224Z,59.30
2017-08-08T06:31:11.866Z,59.30
2017-08-08T06:33:39.362Z,58.70
2017-08-08T06:36:06.879Z,58.50
2017-08-08T06:38:34.418Z,58.60
2017-08-08T06:41:01.956Z,58.30
2017-08-08T06:43:29.460Z,58.40
2017-08-08T06:45:57.149Z,58.60
2017-08-08T06:48:25.424Z,57.50
2017-08-08T06:50:53.705Z,58.10
2017-08-08T06:53:21.987Z,58.10
2017-08-08T06:55:49.486Z,58.10
2017-08-08T06:58:18.336Z,58.20
2017-08-08T07:00:47.435Z,57.90
2017-08-08T07:03:16.363Z,57.60
2017-08-08T07:05:43.879Z,56.90
2017-08-08T07:08:11.393Z,56.60
2017-08-08T07:10:38.888Z,56.90
2017-08-08T07:13:07.173Z,57.20
2017-08-08T07:15:35.444Z,57.10
2017-08-08T07:18:03.714Z,57.00
2017-08-08T07:20:31.190Z,56.70
2017-08-08T07:22:59.448Z,56.10
2017-08-08T07:25:27.718Z,56.10
2017-08-08T07:27:55.229Z,55.50
2017-08-08T07:30:22.705Z,55.20
2017-08-08T07:32:50.203Z,54.40
2017-08-08T07:35:17.801Z,55.10
2017-08-08T07:37:45.289Z,55.20
2017-08-08T07:40:12.849Z,55.10
2017-08-08T07:42:40.335Z,54.60
2017-08-08T07:45:07.845Z,54.90
2017-08-08T07:47:35.350Z,55.00
2017-08-08T07:50:02.847Z,54.90
2017-08-08T07:52:30.346Z,54.30
2017-08-08T07:54:57.843Z,54.60
2017-08-08T07:57:26.114Z,54.10
2017-08-08T07:59:53.623Z,54.10
2017-08-08T08:02:21.120Z,53.80
2017-08-08T08:04:48.641Z,53.50
2017-08-08T08:07:16.162Z,53.40
2017-08-08T08:09:44.412Z,54.20
2017-08-08T08:12:11.929Z,54.20
2017-08-08T08:14:46.590Z,53.60
2017-08-08T08:17:14.066Z,53.10
2017-08-08T08:19:41.549Z,52.90
2017-08-08T08:22:09.104Z,53.10
2017-08-08T08:24:37.399Z,53.00
2017-08-08T08:27:04.893Z,52.90
2017-08-08T08:29:32.386Z,52.40
2017-08-08T08:31:59.920Z,52.00
2017-08-08T08:34:27.445Z,51.50
2017-08-08T08:36:54.954Z,52.20
2017-08-08T08:39:22.449Z,52.00
2017-08-08T08:41:49.943Z,51.70
2017-08-08T08:44:17.476Z,51.00
2017-08-08T08:46:44.978Z,49.90
2017-08-08T08:49:12.488Z,50.00
2017-08-08T08:51:39.977Z,50.50
2017-08-08T08:54:07.497Z,49.90
2017-08-08T08:56:35.036Z,49.30
2017-08-08T08:59:02.556Z,49.00
2017-08-08T09:01:30.059Z,48.10
2017-08-08T09:03:58.345Z,47.30
2017-08-08T09:06:26.611Z,47.20
2017-08-08T09:08:54.871Z,47.60
2017-08-08T09:11:22.368Z,47.00
2017-08-08T09:13:49.874Z,47.00
2017-08-08T09:16:17.455Z,47.00
2017-08-08T09:18:45.042Z,46.90
2017-08-08T09:21:12.554Z,47.00
2017-08-08T09:23:40.057Z,46.80
2017-08-08T09:26:08.309Z,46.50
2017-08-08T09:28:35.815Z,46.50
2017-08-08T09:31:03.427Z,46.20
2017-08-08T09:33:31.041Z,46.80
2017-08-08T09:35:58.535Z,46.40
2017-08-08T09:38:25.999Z,47.20
2017-08-08T09:40:53.519Z,47.40
2017-08-08T09:43:21.022Z,48.20
2017-08-08T09:45:49.471Z,47.60
2017-08-08T09:48:16.959Z,47.10
2017-08-08T09:50:44.470Z,46.80
2017-08-08T09:53:11.980Z,45.90
2017-08-08T09:55:39.480Z,45.10
2017-08-08T09:58:06.977Z,45.50
2017-08-08T10:00:34.468Z,45.50
2017-08-08T10:03:01.969Z,45.30
2017-08-08T10:05:29.664Z,44.70
2017-08-08T10:07:57.175Z,44.50
2017-08-08T10:10:24.661Z,44.00
2017-08-08T10:12:52.163Z,43.70
2017-08-08T10:15:19.688Z,44.20
2017-08-08T10:17:47.228Z,43.50
2017-08-08T10:20:14.724Z,42.70
2017-08-08T10:22:42.209Z,43.10
2017-08-08T10:25:09.727Z,42.90
2017-08-08T10:27:37.252Z,42.40
2017-08-08T10:30:04.780Z,43.30
2017-08-08T10:32:32.275Z,43.00
2017-08-08T10:35:00.650Z,43.50
2017-08-08T10:37:28.195Z,43.40
2017-08-08T10:39:55.735Z,43.40
2017-08-08T10:42:23.250Z,42.90
2017-08-08T10:44:50.780Z,41.50
2017-08-08T10:47:18.290Z,38.60
2017-08-08T10:49:45.866Z,36.00
2017-08-08T10:52:13.415Z,33.30
2017-08-08T10:54:40.942Z,31.10
2017-08-08T10:57:08.516Z,29.40
2017-08-08T10:59:36.066Z,29.10
2017-08-08T11:02:04.550Z,28.60
2017-08-08T11:04:32.089Z,28.20
2017-08-08T11:06:59.597Z,28.10
2017-08-08T11:09:27.203Z,28.60
2017-08-08T11:11:54.711Z,28.80
2017-08-08T11:14:22.282Z,28.80
2017-08-08T11:16:49.802Z,29.50
2017-08-08T11:19:17.303Z,29.70
2017-08-08T11:21:44.794Z,29.60
2017-08-08T11:24:12.281Z,29.60
2017-08-08T11:26:39.819Z,30.10
2017-08-08T11:29:07.330Z,30.80
2017-08-08T11:31:34.858Z,31.20
2017-08-08T11:34:02.366Z,31.60
2017-08-08T11:36:30.707Z,30.90
2017-08-08T11:38:58.209Z,30.70
2017-08-08T11:41:26.464Z,29.80
2017-08-08T11:43:53.968Z,29.80
2017-08-08T11:46:21.453Z,29.30
2017-08-08T11:48:48.956Z,29.60
2017-08-08T11:51:16.533Z,29.50
2017-08-08T11:53:44.048Z,30.00
2017-08-08T11:56:11.552Z,30.30
2017-08-08T11:58:39.070Z,31.30
2017-08-08T12:01:06.578Z,33.40
2017-08-08T12:03:34.148Z,34.50
2017-08-08T12:06:01.664Z,33.90
2017-08-08T12:08:29.161Z,33.40
2017-08-08T12:10:56.692Z,33.00
2017-08-08T12:13:24.220Z,32.60
2017-08-08T12:15:51.762Z,33.20
2017-08-08T12:18:19.308Z,32.60
2017-08-08T12:38:06.781Z,30.00
2017-08-08T12:40:34.393Z,30.30
2017-08-08T12:43:01.900Z,30.20
2017-08-08T12:45:29.399Z,30.00
2017-08-08T12:47:57.686Z,29.60
2017-08-08T12:50:25.963Z,29.30
2017-08-08T12:52:55.101Z,29.00
2017-08-08T12:55:22.614Z,29.00
2017-08-08T12:57:50.136Z,28.50
2017-08-08T13:00:17.637Z,28.30
2017-08-08T13:02:45.907Z,26.80
2017-08-08T13:05:13.462Z,26.80
2017-08-08T13:07:40.945Z,25.20
2017-08-08T13:10:08.474Z,26.00
2017-08-08T13:12:35.990Z,27.00
2017-08-08T13:15:03.494Z,26.90
2017-08-08T13:17:31.005Z,26.20
2017-08-08T13:19:58.587Z,26.10
2017-08-08T13:22:26.141Z,26.50
2017-08-08T13:24:53.630Z,27.30
2017-08-08T13:27:21.124Z,27.60
2017-08-08T13:29:48.679Z,28.20
2017-08-08T13:32:16.186Z,28.80
2017-08-08T13:34:43.681Z,28.90
2017-08-08T13:37:11.199Z,28.50
2017-08-08T13:39:38.687Z,28.10
2017-08-08T13:42:06.195Z,28.20
2017-08-08T13:44:33.692Z,29.10
2017-08-08T13:47:01.243Z,29.90
2017-08-08T13:49:28.891Z,30.30
2017-08-08T13:51:56.391Z,31.20
2017-08-08T13:54:23.997Z,31.80
2017-08-08T13:56:51.530Z,32.40
2017-08-08T13:59:19.017Z,31.20
2017-08-08T14:01:46.544Z,30.10
2017-08-08T14:04:14.056Z,30.20
2017-08-08T14:06:41.560Z,29.40
2017-08-08T14:09:09.161Z,28.40
2017-08-08T14:11:36.696Z,27.90
2017-08-08T14:14:04.232Z,28.70
2017-08-08T14:16:31.739Z,29.50
2017-08-08T14:18:59.259Z,30.20
2017-08-08T14:21:26.840Z,31.80
2017-08-08T14:23:54.363Z,32.50
2017-08-08T14:26:21.855Z,33.80
2017-08-08T14:28:49.380Z,34.50
2017-08-08T14:31:16.880Z,35.10
2017-08-08T14:33:44.374Z,35.40
2017-08-08T14:36:11.893Z,35.30
2017-08-08T14:38:39.388Z,36.00
2017-08-08T14:41:06.895Z,36.50
2017-08-08T14:43:34.406Z,36.40
2017-08-08T14:46:01.909Z,36.20
2017-08-08T14:48:29.419Z,36.40
2017-08-08T14:50:56.934Z,36.40
2017-08-08T14:53:24.472Z,36.60
2017-08-08T14:55:52.000Z,37.00
2017-08-08T14:58:19.511Z,37.40
2017-08-08T15:18:06.984Z,37.80
2017-08-08T15:20:34.501Z,37.90
2017-08-08T15:23:02.035Z,38.70
2017-08-08T15:25:29.539Z,38.90
2017-08-08T15:27:57.127Z,38.60
2017-08-08T15:30:24.677Z,38.90
2017-08-08T15:32:52.198Z,39.00
2017-08-08T15:35:19.734Z,39.00
2017-08-08T15:37:47.259Z,38.70
2017-08-08T15:40:14.781Z,38.20
2017-08-08T15:42:42.369Z,38.70
2017-08-08T15:45:09.877Z,39.20
2017-08-08T15:47:37.420Z,38.60
2017-08-08T15:50:05.059Z,38.20
2017-08-08T15:52:32.568Z,37.80
2017-08-08T15:55:00.300Z,38.10
2017-08-08T15:57:27.873Z,38.10
2017-08-08T15:59:55.373Z,37.90
2017-08-08T16:02:22.904Z,37.90
2017-08-08T16:04:50.445Z,37.80
2017-08-08T16:07:18.030Z,37.70
2017-08-08T16:09:45.550Z,38.20
2017-08-08T16:12:13.134Z,38.20
2017-08-08T16:14:40.656Z,38.30
2017-08-08T16:17:08.225Z,38.60
2017-08-08T16:19:35.743Z,39.00
2017-08-08T16:22:04.198Z,39.00
2017-08-08T16:24:31.714Z,39.90
2017-08-08T16:26:59.257Z,39.60
2017-08-08T16:29:26.799Z,39.60
2017-08-08T16:31:54.339Z,40.20
2017-08-08T16:34:21.843Z,40.70
2017-08-08T16:36:49.360Z,41.20
2017-08-08T16:39:16.885Z,41.50
2017-08-08T16:41:44.393Z,41.70
2017-08-08T16:44:12.705Z,41.90
2017-08-08T16:46:40.210Z,41.90
2017-08-08T16:49:07.742Z,42.00
2017-08-08T16:51:35.246Z,41.60
2017-08-08T16:54:02.803Z,41.20
2017-08-08T16:56:30.421Z,41.40
2017-08-08T16:58:58.039Z,40.80
2017-08-08T17:01:26.310Z,39.90
2017-08-08T17:03:53.833Z,39.80
2017-08-08T17:06:21.413Z,39.70
2017-08-08T17:08:48.932Z,40.10
2017-08-08T17:11:16.454Z,40.50
2017-08-08T17:13:43.958Z,40.90
2017-08-08T17:16:11.472Z,41.10
2017-08-08T17:18:39.756Z,42.20
2017-08-08T17:21:08.096Z,41.70
2017-08-08T17:23:35.626Z,42.30
2017-08-08T17:26:03.142Z,41.50
2017-08-08T17:28:31.433Z,40.80
2017-08-08T17:30:58.956Z,40.80
2017-08-08T17:33:26.478Z,41.20
2017-08-08T17:35:54.004Z,41.30
2017-08-08T17:38:22.279Z,43.00
2017-08-08T17:40:50.526Z,43.00
2017-08-08T17:43:18.066Z,43.00
2017-08-08T17:45:45.608Z,43.20
2017-08-08T17:48:13.179Z,43.30
2017-08-08T17:50:42.283Z,43.40
2017-08-08T17:53:09.845Z,44.10
2017-08-08T17:55:37.355Z,44.50
2017-08-08T17:58:05.672Z,45.20
2017-08-08T18:00:33.234Z,45.20
2017-08-08T18:03:00.797Z,45.60
2017-08-08T18:05:28.322Z,45.90
2017-08-08T18:07:55.849Z,46.20
2017-08-08T18:10:23.349Z,46.60
2017-08-08T18:12:50.898Z,46.80
2017-08-08T18:15:18.407Z,46.70
2017-08-08T18:17:45.994Z,47.00
2017-08-08T18:20:13.531Z,47.10
2017-08-08T18:22:41.022Z,47.20
2017-08-08T18:25:09.295Z,48.00
2017-08-08T18:27:36.804Z,47.90
2017-08-08T18:30:04.304Z,48.00
2017-08-08T18:32:31.840Z,48.30
2017-08-08T18:34:59.457Z,48.50
2017-08-08T18:37:26.968Z,48.90
2017-08-08T18:39:54.500Z,49.20
2017-08-08T18:42:22.050Z,49.30
2017-08-08T18:44:49.624Z,49.50
2017-08-08T18:47:17.162Z,49.70
2017-08-08T18:49:44.685Z,49.80
2017-08-08T18:52:12.203Z,50.10
2017-08-08T18:54:39.723Z,50.30
2017-08-08T18:57:07.359Z,50.30
2017-08-08T18:59:34.862Z,50.40
2017-08-08T19:02:02.390Z,50.50
2017-08-08T19:04:29.912Z,50.70
2017-08-08T19:06:57.446Z,51.00
2017-08-08T19:09:24.955Z,51.10
2017-08-08T19:11:52.495Z,51.40
2017-08-08T19:14:20.006Z,51.50
2017-08-08T19:16:47.516Z,51.60
2017-08-08T19:19:15.048Z,52.00
2017-08-08T19:21:42.580Z,52.10
2017-08-08T19:24:10.095Z,52.30
2017-08-08T19:26:37.680Z,52.80
2017-08-08T19:29:05.261Z,52.80
2017-08-08T19:31:32.771Z,53.10
2017-08-08T19:34:00.319Z,53.20
2017-08-08T19:36:27.845Z,53.50
2017-08-08T19:38:56.110Z,54.00
2017-08-08T19:41:24.393Z,54.00
2017-08-08T19:43:52.661Z,54.40
2017-08-08T19:46:20.151Z,54.40
2017-08-08T19:48:47.689Z,54.50
2017-08-08T19:51:15.215Z,54.80
2017-08-08T19:53:42.742Z,54.80
2017-08-08T19:56:10.276Z,55.00
2017-08-08T19:58:37.952Z,55.20
2017-08-08T20:01:05.462Z,55.30
2017-08-08T20:03:32.971Z,55.70
2017-08-08T20:06:00.537Z,55.80
2017-08-08T20:08:28.044Z,55.80
2017-08-08T20:10:55.590Z,55.80
2017-08-08T20:13:23.097Z,56.00
2017-08-08T20:15:50.603Z,56.30
2017-08-08T20:18:18.113Z,56.30
2017-08-08T20:20:45.654Z,56.30
2017-08-08T20:23:13.171Z,56.40
2017-08-08T20:25:48.508Z,56.50
2017-08-08T20:28:15.996Z,56.70
2017-08-08T20:30:43.511Z,56.80
2017-08-08T20:33:11.010Z,56.80
2017-08-08T20:35:38.569Z,56.90
2017-08-08T20:38:06.088Z,56.80
2017-08-08T20:40:33.623Z,57.00
2017-08-08T20:43:01.903Z,56.90
2017-08-08T20:45:30.185Z,56.90
2017-08-08T20:47:58.452Z,56.90
2017-08-08T20:50:27.053Z,57.10
2017-08-08T20:52:54.558Z,57.10
2017-08-08T20:55:22.075Z,57.30
2017-08-08T20:57:49.602Z,57.30
2017-08-08T21:00:17.121Z,57.20
2017-08-08T21:02:44.629Z,57.40
2017-08-08T21:05:12.918Z,57.50
2017-08-08T21:07:41.210Z,57.70
2017-08-08T21:10:08.724Z,57.70
2017-08-08T21:12:36.277Z,57.90
2017-08-08T21:15:03.826Z,57.80
2017-08-08T21:17:31.343Z,57.80
2017-08-08T21:19:58.909Z,58.00
2017-08-08T21:22:26.414Z,58.60
2017-08-08T21:24:53.932Z,58.00
2017-08-08T21:27:21.428Z,58.10
2017-08-08T21:29:49.009Z,58.30
2017-08-08T21:32:16.540Z,58.60
2017-08-08T21:34:44.054Z,58.70
2017-08-08T21:37:12.366Z,58.90
2017-08-08T21:39:39.867Z,58.80
2017-08-08T21:42:07.406Z,58.90
2017-08-08T21:44:34.956Z,59.10
2017-08-08T21:47:02.475Z,59.20
2017-08-08T21:49:30.853Z,59.10
2017-08-08T21:51:59.143Z,59.40
2017-08-08T21:54:26.732Z,59.40
2017-08-08T21:56:54.276Z,59.40
2017-08-08T21:59:21.848Z,59.60
2017-08-08T22:01:49.358Z,59.70
2017-08-08T22:04:17.767Z,60.00
2017-08-08T22:06:45.317Z,59.90
2017-08-08T22:09:12.823Z,60.00
2017-08-08T22:11:40.453Z,59.90
2017-08-08T22:14:08.770Z,60.10
2017-08-08T22:16:36.406Z,60.10
2017-08-08T22:19:04.054Z,60.50
2017-08-08T22:21:31.577Z,60.70
2017-08-08T22:23:59.225Z,60.80
2017-08-08T22:26:26.765Z,60.80
2017-08-08T22:28:54.436Z,60.90
2017-08-08T22:31:22.022Z,61.10
2017-08-08T22:33:49.542Z,61.70
2017-08-08T22:36:17.064Z,61.90
2017-08-08T22:38:44.673Z,62.00
2017-08-08T22:41:12.185Z,62.10
2017-08-08T22:43:39.716Z,62.40
2017-08-08T22:46:07.426Z,62.50
2017-08-08T22:48:35.130Z,62.80
2017-08-08T22:51:02.689Z,62.80
2017-08-08T22:53:30.166Z,62.70
2017-08-08T22:55:57.727Z,62.40
2017-08-08T22:58:25.270Z,62.30
2017-08-08T23:00:52.795Z,63.10
2017-08-08T23:03:22.440Z,63.30
2017-08-08T23:05:49.977Z,63.80
2017-08-08T23:08:17.521Z,64.20
2017-08-08T23:10:45.017Z,64.40
2017-08-08T23:13:12.533Z,64.30
2017-08-08T23:15:40.022Z,64.90
2017-08-08T23:18:07.520Z,65.10
2017-08-08T23:20:35.807Z,64.90
2017-08-08T23:23:03.973Z,64.70
2017-08-08T23:25:31.487Z,65.00
2017-08-08T23:27:58.977Z,64.90
2017-08-08T23:30:27.241Z,66.00
2017-08-08T23:32:54.752Z,65.10
2017-08-08T23:35:22.321Z,65.20
2017-08-08T23:37:49.827Z,65.20
2017-08-08T23:40:17.325Z,65.00
2017-08-08T23:42:44.841Z,66.20
2017-08-08T23:45:12.380Z,65.30
2017-08-08T23:47:39.869Z,65.50
2017-08-08T23:50:08.137Z,65.10
2017-08-08T23:52:35.663Z,65.90
2017-08-08T23:55:03.155Z,65.00
2017-08-08T23:57:30.760Z,64.90
2017-08-08T23:59:58.289Z,65.10
